Clark, New Jersey
Current Conditions -  °F | °C
As of 10:15 AM on Friday 19 Dec 2014 (Local Time) from KLDJ Reporting Station
Overcast Overcast  
Wind Chill: 32°   Ceiling: 3300
Heat Index: 40°   Visibility: 10mi
Dew Point: 26°   Wind: 14mph
Humidity: 56%   Direction: 340°NNW
Pressure: 30.09"   Gusts: 22mph
Location:  40.62°N, 74.31°W
Report Text: KLDJ 191515Z AUTO 34012G19KT 10SM OVC033 05/M03 A3009 RMK AO2 T00451035
Loading
Personal Weather Stations






























Interactive Weather Map New forecast layout! Learn more

10-Day Weather Forecast

Advertisements
Track Severe Weather on mobile